sensor_id;sensor_type;location;lat;lon;timestamp;P1;durP1;ratioP1;P2;durP2;ratioP2
15271;SDS011;7737;51.578;7.268;2022-10-16T00:01:31;5.60;;;2.83;;
15271;SDS011;7737;51.578;7.268;2022-10-16T00:03:58;5.05;;;2.63;;
15271;SDS011;7737;51.578;7.268;2022-10-16T00:06:26;4.35;;;2.40;;
15271;SDS011;7737;51.578;7.268;2022-10-16T00:08:54;6.00;;;2.70;;
15271;SDS011;7737;51.578;7.268;2022-10-16T00:11:23;4.43;;;2.53;;
15271;SDS011;7737;51.578;7.268;2022-10-16T00:13:52;4.68;;;2.40;;
15271;SDS011;7737;51.578;7.268;2022-10-16T00:16:21;4.35;;;2.65;;
15271;SDS011;7737;51.578;7.268;2022-10-16T00:18:48;7.25;;;2.63;;
15271;SDS011;7737;51.578;7.268;2022-10-16T00:21:15;4.25;;;2.60;;
15271;SDS011;7737;51.578;7.268;2022-10-16T00:23:43;3.00;;;2.42;;
15271;SDS011;7737;51.578;7.268;2022-10-16T00:26:11;5.22;;;2.25;;
15271;SDS011;7737;51.578;7.268;2022-10-16T00:28:40;2.83;;;2.30;;
15271;SDS011;7737;51.578;7.268;2022-10-16T00:31:08;3.92;;;2.15;;
15271;SDS011;7737;51.578;7.268;2022-10-16T00:33:35;8.25;;;3.00;;
15271;SDS011;7737;51.578;7.268;2022-10-16T00:36:03;3.63;;;2.33;;
15271;SDS011;7737;51.578;7.268;2022-10-16T00:38:31;3.00;;;2.25;;
15271;SDS011;7737;51.578;7.268;2022-10-16T00:40:57;3.10;;;2.50;;
15271;SDS011;7737;51.578;7.268;2022-10-16T00:43:35;3.53;;;2.42;;
15271;SDS011;7737;51.578;7.268;2022-10-16T00:46:07;3.35;;;2.25;;
15271;SDS011;7737;51.578;7.268;2022-10-16T00:48:39;4.97;;;2.50;;
15271;SDS011;7737;51.578;7.268;2022-10-16T00:51:06;3.50;;;2.25;;
15271;SDS011;7737;51.578;7.268;2022-10-16T00:53:33;4.18;;;2.40;;
15271;SDS011;7737;51.578;7.268;2022-10-16T00:56:00;2.25;;;1.75;;
15271;SDS011;7737;51.578;7.268;2022-10-16T00:58:27;3.67;;;2.10;;
15271;SDS011;7737;51.578;7.268;2022-10-16T01:00:54;2.22;;;2.03;;
15271;SDS011;7737;51.578;7.268;2022-10-16T01:03:26;3.35;;;1.95;;
15271;SDS011;7737;51.578;7.268;2022-10-16T01:05:57;4.70;;;1.60;;
15271;SDS011;7737;51.578;7.268;2022-10-16T01:08:34;3.13;;;2.13;;
15271;SDS011;7737;51.578;7.268;2022-10-16T01:11:11;3.15;;;1.70;;
15271;SDS011;7737;51.578;7.268;2022-10-16T01:13:45;4.57;;;1.75;;
15271;SDS011;7737;51.578;7.268;2022-10-16T01:16:17;3.42;;;1.80;;
15271;SDS011;7737;51.578;7.268;2022-10-16T01:18:54;3.15;;;1.95;;
15271;SDS011;7737;51.578;7.268;2022-10-16T01:21:24;4.97;;;1.98;;
15271;SDS011;7737;51.578;7.268;2022-10-16T01:23:56;3.78;;;1.88;;
15271;SDS011;7737;51.578;7.268;2022-10-16T01:26:31;2.95;;;1.60;;
15271;SDS011;7737;51.578;7.268;2022-10-16T01:29:12;2.33;;;1.70;;
15271;SDS011;7737;51.578;7.268;2022-10-16T01:31:44;2.20;;;1.85;;
15271;SDS011;7737;51.578;7.268;2022-10-16T01:34:17;3.75;;;1.60;;
15271;SDS011;7737;51.578;7.268;2022-10-16T01:36:49;5.50;;;1.77;;
15271;SDS011;7737;51.578;7.268;2022-10-16T01:39:20;4.80;;;1.77;;
15271;SDS011;7737;51.578;7.268;2022-10-16T01:41:51;3.35;;;1.70;;
15271;SDS011;7737;51.578;7.268;2022-10-16T01:44:25;4.95;;;1.67;;
15271;SDS011;7737;51.578;7.268;2022-10-16T01:46:55;3.17;;;1.65;;
15271;SDS011;7737;51.578;7.268;2022-10-16T01:49:23;2.40;;;1.65;;
15271;SDS011;7737;51.578;7.268;2022-10-16T01:51:54;3.67;;;1.67;;
15271;SDS011;7737;51.578;7.268;2022-10-16T01:54:23;2.55;;;1.58;;
15271;SDS011;7737;51.578;7.268;2022-10-16T01:56:54;2.60;;;1.35;;
15271;SDS011;7737;51.578;7.268;2022-10-16T01:59:23;2.38;;;1.40;;
15271;SDS011;7737;51.578;7.268;2022-10-16T02:01:54;2.33;;;1.45;;
15271;SDS011;7737;51.578;7.268;2022-10-16T02:04:27;3.03;;;1.60;;
15271;SDS011;7737;51.578;7.268;2022-10-16T02:06:56;3.25;;;1.40;;
15271;SDS011;7737;51.578;7.268;2022-10-16T02:09:22;2.50;;;1.48;;
15271;SDS011;7737;51.578;7.268;2022-10-16T02:11:49;2.03;;;1.40;;
15271;SDS011;7737;51.578;7.268;2022-10-16T02:14:18;2.28;;;1.40;;
15271;SDS011;7737;51.578;7.268;2022-10-16T02:16:46;2.58;;;1.42;;
15271;SDS011;7737;51.578;7.268;2022-10-16T02:19:13;2.30;;;1.70;;
15271;SDS011;7737;51.578;7.268;2022-10-16T02:21:42;3.33;;;1.50;;
15271;SDS011;7737;51.578;7.268;2022-10-16T02:24:17;2.40;;;1.60;;
15271;SDS011;7737;51.578;7.268;2022-10-16T02:26:51;4.65;;;1.50;;
15271;SDS011;7737;51.578;7.268;2022-10-16T02:29:24;3.33;;;1.52;;
15271;SDS011;7737;51.578;7.268;2022-10-16T02:31:55;2.38;;;1.58;;
15271;SDS011;7737;51.578;7.268;2022-10-16T02:34:24;2.00;;;1.40;;
15271;SDS011;7737;51.578;7.268;2022-10-16T02:36:53;2.15;;;1.50;;
15271;SDS011;7737;51.578;7.268;2022-10-16T02:39:20;1.40;;;1.27;;
15271;SDS011;7737;51.578;7.268;2022-10-16T02:41:47;1.90;;;1.38;;
15271;SDS011;7737;51.578;7.268;2022-10-16T02:44:14;3.92;;;1.38;;
15271;SDS011;7737;51.578;7.268;2022-10-16T02:46:40;4.25;;;1.75;;
15271;SDS011;7737;51.578;7.268;2022-10-16T02:49:08;3.22;;;1.45;;
15271;SDS011;7737;51.578;7.268;2022-10-16T02:51:35;2.50;;;1.30;;
15271;SDS011;7737;51.578;7.268;2022-10-16T02:54:01;2.17;;;1.42;;
15271;SDS011;7737;51.578;7.268;2022-10-16T02:56:28;2.75;;;1.33;;
15271;SDS011;7737;51.578;7.268;2022-10-16T02:58:56;3.97;;;1.23;;
15271;SDS011;7737;51.578;7.268;2022-10-16T03:01:22;1.90;;;1.38;;
15271;SDS011;7737;51.578;7.268;2022-10-16T03:03:49;3.03;;;1.40;;
15271;SDS011;7737;51.578;7.268;2022-10-16T03:06:17;2.47;;;1.33;;
15271;SDS011;7737;51.578;7.268;2022-10-16T03:08:43;2.35;;;1.20;;
15271;SDS011;7737;51.578;7.268;2022-10-16T03:11:10;2.08;;;1.40;;
15271;SDS011;7737;51.578;7.268;2022-10-16T03:13:36;4.28;;;1.40;;
15271;SDS011;7737;51.578;7.268;2022-10-16T03:16:03;2.17;;;1.17;;
15271;SDS011;7737;51.578;7.268;2022-10-16T03:18:30;3.13;;;1.23;;
15271;SDS011;7737;51.578;7.268;2022-10-16T03:20:56;2.75;;;1.23;;
15271;SDS011;7737;51.578;7.268;2022-10-16T03:23:24;1.85;;;1.20;;
15271;SDS011;7737;51.578;7.268;2022-10-16T03:25:50;1.33;;;1.10;;
15271;SDS011;7737;51.578;7.268;2022-10-16T03:28:17;2.38;;;1.40;;
15271;SDS011;7737;51.578;7.268;2022-10-16T03:30:44;2.65;;;1.30;;
15271;SDS011;7737;51.578;7.268;2022-10-16T03:33:10;2.88;;;1.10;;
15271;SDS011;7737;51.578;7.268;2022-10-16T03:35:37;2.47;;;1.40;;
15271;SDS011;7737;51.578;7.268;2022-10-16T03:38:03;1.88;;;1.10;;
15271;SDS011;7737;51.578;7.268;2022-10-16T03:40:31;2.33;;;1.13;;
15271;SDS011;7737;51.578;7.268;2022-10-16T03:42:58;2.10;;;1.10;;
15271;SDS011;7737;51.578;7.268;2022-10-16T03:45:25;1.92;;;1.15;;
15271;SDS011;7737;51.578;7.268;2022-10-16T03:47:52;1.42;;;0.85;;
15271;SDS011;7737;51.578;7.268;2022-10-16T03:50:18;1.75;;;1.00;;
15271;SDS011;7737;51.578;7.268;2022-10-16T03:52:45;2.22;;;1.25;;
15271;SDS011;7737;51.578;7.268;2022-10-16T03:55:11;2.60;;;1.20;;
15271;SDS011;7737;51.578;7.268;2022-10-16T03:57:39;1.27;;;1.00;;
15271;SDS011;7737;51.578;7.268;2022-10-16T04:00:06;2.28;;;1.55;;
15271;SDS011;7737;51.578;7.268;2022-10-16T04:02:33;2.78;;;1.13;;
15271;SDS011;7737;51.578;7.268;2022-10-16T04:05:00;1.83;;;1.08;;
15271;SDS011;7737;51.578;7.268;2022-10-16T04:07:26;2.67;;;1.10;;
15271;SDS011;7737;51.578;7.268;2022-10-16T04:09:53;2.65;;;1.10;;
15271;SDS011;7737;51.578;7.268;2022-10-16T04:12:20;2.38;;;1.00;;
15271;SDS011;7737;51.578;7.268;2022-10-16T04:14:47;1.83;;;1.02;;
15271;SDS011;7737;51.578;7.268;2022-10-16T04:17:14;1.80;;;0.90;;
15271;SDS011;7737;51.578;7.268;2022-10-16T04:19:40;1.33;;;1.05;;
15271;SDS011;7737;51.578;7.268;2022-10-16T04:22:07;1.30;;;1.08;;
15271;SDS011;7737;51.578;7.268;2022-10-16T04:24:33;2.20;;;1.08;;
15271;SDS011;7737;51.578;7.268;2022-10-16T04:27:00;2.70;;;1.30;;
15271;SDS011;7737;51.578;7.268;2022-10-16T04:29:27;3.67;;;0.98;;
15271;SDS011;7737;51.578;7.268;2022-10-16T04:31:54;1.65;;;1.00;;
15271;SDS011;7737;51.578;7.268;2022-10-16T04:34:21;1.55;;;1.02;;
15271;SDS011;7737;51.578;7.268;2022-10-16T04:36:48;2.25;;;1.15;;
15271;SDS011;7737;51.578;7.268;2022-10-16T04:39:15;1.83;;;0.90;;
15271;SDS011;7737;51.578;7.268;2022-10-16T04:41:41;1.95;;;1.10;;
15271;SDS011;7737;51.578;7.268;2022-10-16T04:44:08;1.80;;;1.00;;
15271;SDS011;7737;51.578;7.268;2022-10-16T04:46:34;1.10;;;1.00;;
15271;SDS011;7737;51.578;7.268;2022-10-16T04:49:02;3.63;;;1.20;;
15271;SDS011;7737;51.578;7.268;2022-10-16T04:51:29;1.25;;;1.10;;
15271;SDS011;7737;51.578;7.268;2022-10-16T04:53:55;1.67;;;1.08;;
15271;SDS011;7737;51.578;7.268;2022-10-16T04:56:22;2.55;;;1.02;;
15271;SDS011;7737;51.578;7.268;2022-10-16T04:58:49;2.03;;;1.00;;
15271;SDS011;7737;51.578;7.268;2022-10-16T05:01:15;1.38;;;1.00;;
15271;SDS011;7737;51.578;7.268;2022-10-16T05:03:42;1.35;;;1.05;;
15271;SDS011;7737;51.578;7.268;2022-10-16T05:06:10;1.80;;;1.08;;
15271;SDS011;7737;51.578;7.268;2022-10-16T05:08:36;2.15;;;0.93;;
15271;SDS011;7737;51.578;7.268;2022-10-16T05:11:03;2.35;;;1.00;;
15271;SDS011;7737;51.578;7.268;2022-10-16T05:13:29;0.88;;;0.77;;
15271;SDS011;7737;51.578;7.268;2022-10-16T05:15:56;2.05;;;1.10;;
15271;SDS011;7737;51.578;7.268;2022-10-16T05:18:23;2.97;;;1.40;;
15271;SDS011;7737;51.578;7.268;2022-10-16T05:20:49;1.55;;;1.10;;
15271;SDS011;7737;51.578;7.268;2022-10-16T05:23:17;1.27;;;0.93;;
15271;SDS011;7737;51.578;7.268;2022-10-16T05:25:51;2.30;;;1.00;;
15271;SDS011;7737;51.578;7.268;2022-10-16T05:28:18;1.83;;;1.10;;
15271;SDS011;7737;51.578;7.268;2022-10-16T05:30:44;1.70;;;1.25;;
15271;SDS011;7737;51.578;7.268;2022-10-16T05:33:11;1.15;;;1.05;;
15271;SDS011;7737;51.578;7.268;2022-10-16T05:35:38;2.08;;;1.30;;
15271;SDS011;7737;51.578;7.268;2022-10-16T05:38:04;3.10;;;1.08;;
15271;SDS011;7737;51.578;7.268;2022-10-16T05:40:32;2.78;;;1.40;;
15271;SDS011;7737;51.578;7.268;2022-10-16T05:42:59;1.73;;;1.10;;
15271;SDS011;7737;51.578;7.268;2022-10-16T05:45:25;1.98;;;1.00;;
15271;SDS011;7737;51.578;7.268;2022-10-16T05:47:52;1.20;;;1.10;;
15271;SDS011;7737;51.578;7.268;2022-10-16T05:50:18;1.30;;;1.00;;
15271;SDS011;7737;51.578;7.268;2022-10-16T05:52:45;1.83;;;1.20;;
15271;SDS011;7737;51.578;7.268;2022-10-16T05:55:11;2.00;;;1.30;;
15271;SDS011;7737;51.578;7.268;2022-10-16T05:57:39;2.22;;;1.35;;
15271;SDS011;7737;51.578;7.268;2022-10-16T06:00:06;2.47;;;1.42;;
15271;SDS011;7737;51.578;7.268;2022-10-16T06:02:33;2.25;;;1.40;;
15271;SDS011;7737;51.578;7.268;2022-10-16T06:04:59;3.30;;;1.50;;
15271;SDS011;7737;51.578;7.268;2022-10-16T06:07:26;2.45;;;1.23;;
15271;SDS011;7737;51.578;7.268;2022-10-16T06:09:53;1.92;;;1.23;;
15271;SDS011;7737;51.578;7.268;2022-10-16T06:12:19;1.40;;;1.30;;
15271;SDS011;7737;51.578;7.268;2022-10-16T06:14:47;2.78;;;1.50;;
15271;SDS011;7737;51.578;7.268;2022-10-16T06:17:14;3.70;;;1.50;;
15271;SDS011;7737;51.578;7.268;2022-10-16T06:19:41;1.70;;;1.40;;
15271;SDS011;7737;51.578;7.268;2022-10-16T06:22:07;4.25;;;1.38;;
15271;SDS011;7737;51.578;7.268;2022-10-16T06:24:34;1.55;;;1.10;;
15271;SDS011;7737;51.578;7.268;2022-10-16T06:27:00;3.42;;;2.38;;
15271;SDS011;7737;51.578;7.268;2022-10-16T06:29:28;3.40;;;2.03;;
15271;SDS011;7737;51.578;7.268;2022-10-16T06:31:56;2.67;;;1.63;;
15271;SDS011;7737;51.578;7.268;2022-10-16T06:34:23;1.55;;;1.13;;
15271;SDS011;7737;51.578;7.268;2022-10-16T06:36:49;1.42;;;1.10;;
15271;SDS011;7737;51.578;7.268;2022-10-16T06:39:16;3.35;;;2.83;;
15271;SDS011;7737;51.578;7.268;2022-10-16T06:41:42;3.88;;;3.38;;
15271;SDS011;7737;51.578;7.268;2022-10-16T06:44:09;3.22;;;2.88;;
15271;SDS011;7737;51.578;7.268;2022-10-16T06:46:36;2.88;;;1.77;;
15271;SDS011;7737;51.578;7.268;2022-10-16T06:49:03;1.88;;;1.60;;
15271;SDS011;7737;51.578;7.268;2022-10-16T06:51:30;1.90;;;1.55;;
15271;SDS011;7737;51.578;7.268;2022-10-16T06:53:59;5.20;;;2.17;;
15271;SDS011;7737;51.578;7.268;2022-10-16T06:56:26;5.45;;;3.22;;
15271;SDS011;7737;51.578;7.268;2022-10-16T06:58:54;5.00;;;3.13;;
15271;SDS011;7737;51.578;7.268;2022-10-16T07:01:23;2.97;;;2.70;;
15271;SDS011;7737;51.578;7.268;2022-10-16T07:03:50;4.10;;;3.05;;
15271;SDS011;7737;51.578;7.268;2022-10-16T07:06:20;3.05;;;2.53;;
15271;SDS011;7737;51.578;7.268;2022-10-16T07:08:48;4.65;;;3.22;;
15271;SDS011;7737;51.578;7.268;2022-10-16T07:11:15;5.55;;;3.20;;
15271;SDS011;7737;51.578;7.268;2022-10-16T07:13:44;5.63;;;3.40;;
15271;SDS011;7737;51.578;7.268;2022-10-16T07:16:12;3.90;;;2.70;;
15271;SDS011;7737;51.578;7.268;2022-10-16T07:18:40;5.00;;;4.05;;
15271;SDS011;7737;51.578;7.268;2022-10-16T07:21:10;5.57;;;3.05;;
15271;SDS011;7737;51.578;7.268;2022-10-16T07:23:40;3.92;;;2.30;;
15271;SDS011;7737;51.578;7.268;2022-10-16T07:26:09;5.10;;;2.97;;
15271;SDS011;7737;51.578;7.268;2022-10-16T07:28:36;3.83;;;2.30;;
15271;SDS011;7737;51.578;7.268;2022-10-16T07:31:05;2.67;;;2.20;;
15271;SDS011;7737;51.578;7.268;2022-10-16T07:33:33;2.33;;;2.10;;
15271;SDS011;7737;51.578;7.268;2022-10-16T07:36:00;2.92;;;1.80;;
15271;SDS011;7737;51.578;7.268;2022-10-16T07:38:27;4.70;;;1.92;;
15271;SDS011;7737;51.578;7.268;2022-10-16T07:40:58;3.17;;;1.92;;
15271;SDS011;7737;51.578;7.268;2022-10-16T07:43:26;2.60;;;1.50;;
15271;SDS011;7737;51.578;7.268;2022-10-16T07:45:53;2.17;;;1.70;;
15271;SDS011;7737;51.578;7.268;2022-10-16T07:48:21;2.35;;;1.48;;
15271;SDS011;7737;51.578;7.268;2022-10-16T07:50:48;2.35;;;1.60;;
15271;SDS011;7737;51.578;7.268;2022-10-16T07:53:15;2.58;;;1.45;;
15271;SDS011;7737;51.578;7.268;2022-10-16T07:55:41;2.92;;;1.60;;
15271;SDS011;7737;51.578;7.268;2022-10-16T07:58:10;1.90;;;1.30;;
15271;SDS011;7737;51.578;7.268;2022-10-16T08:00:37;2.78;;;1.15;;
15271;SDS011;7737;51.578;7.268;2022-10-16T08:03:03;2.35;;;1.20;;
15271;SDS011;7737;51.578;7.268;2022-10-16T08:05:31;2.50;;;1.10;;
15271;SDS011;7737;51.578;7.268;2022-10-16T08:07:58;1.98;;;1.00;;
15271;SDS011;7737;51.578;7.268;2022-10-16T08:10:26;2.60;;;1.17;;
15271;SDS011;7737;51.578;7.268;2022-10-16T08:12:53;2.40;;;1.20;;
15271;SDS011;7737;51.578;7.268;2022-10-16T08:15:21;2.88;;;1.00;;
15271;SDS011;7737;51.578;7.268;2022-10-16T08:17:54;1.83;;;1.30;;
15271;SDS011;7737;51.578;7.268;2022-10-16T08:20:21;3.22;;;1.35;;
15271;SDS011;7737;51.578;7.268;2022-10-16T08:22:47;2.45;;;1.10;;
15271;SDS011;7737;51.578;7.268;2022-10-16T08:25:14;2.67;;;1.10;;
15271;SDS011;7737;51.578;7.268;2022-10-16T08:27:40;1.40;;;1.00;;
15271;SDS011;7737;51.578;7.268;2022-10-16T08:30:08;2.35;;;1.08;;
15271;SDS011;7737;51.578;7.268;2022-10-16T08:32:36;2.17;;;1.20;;
15271;SDS011;7737;51.578;7.268;2022-10-16T08:35:03;4.20;;;1.40;;
15271;SDS011;7737;51.578;7.268;2022-10-16T08:37:30;2.72;;;1.20;;
15271;SDS011;7737;51.578;7.268;2022-10-16T08:39:57;2.65;;;0.90;;
15271;SDS011;7737;51.578;7.268;2022-10-16T08:42:29;3.15;;;1.02;;
15271;SDS011;7737;51.578;7.268;2022-10-16T08:45:14;2.20;;;0.88;;
15271;SDS011;7737;51.578;7.268;2022-10-16T08:47:53;2.85;;;0.80;;
15271;SDS011;7737;51.578;7.268;2022-10-16T08:50:27;2.78;;;0.90;;
15271;SDS011;7737;51.578;7.268;2022-10-16T08:52:55;2.58;;;0.90;;
15271;SDS011;7737;51.578;7.268;2022-10-16T08:55:28;3.75;;;0.88;;
15271;SDS011;7737;51.578;7.268;2022-10-16T08:57:58;2.85;;;1.00;;
15271;SDS011;7737;51.578;7.268;2022-10-16T09:00:25;2.25;;;0.75;;
15271;SDS011;7737;51.578;7.268;2022-10-16T09:02:55;1.35;;;0.80;;
15271;SDS011;7737;51.578;7.268;2022-10-16T09:05:45;2.42;;;1.08;;
15271;SDS011;7737;51.578;7.268;2022-10-16T09:08:34;4.28;;;2.50;;
15271;SDS011;7737;51.578;7.268;2022-10-16T09:11:08;3.70;;;1.02;;
15271;SDS011;7737;51.578;7.268;2022-10-16T09:13:43;3.05;;;1.05;;
15271;SDS011;7737;51.578;7.268;2022-10-16T09:16:18;2.15;;;0.80;;
15271;SDS011;7737;51.578;7.268;2022-10-16T09:18:52;3.25;;;1.45;;
15271;SDS011;7737;51.578;7.268;2022-10-16T09:21:25;2.72;;;0.90;;
15271;SDS011;7737;51.578;7.268;2022-10-16T09:23:55;2.00;;;1.00;;
15271;SDS011;7737;51.578;7.268;2022-10-16T09:26:25;2.03;;;0.82;;
15271;SDS011;7737;51.578;7.268;2022-10-16T09:28:52;2.60;;;1.05;;
15271;SDS011;7737;51.578;7.268;2022-10-16T09:31:19;4.95;;;1.60;;
15271;SDS011;7737;51.578;7.268;2022-10-16T09:33:48;2.35;;;1.17;;
15271;SDS011;7737;51.578;7.268;2022-10-16T09:36:19;2.92;;;1.20;;
15271;SDS011;7737;51.578;7.268;2022-10-16T09:38:47;3.50;;;1.33;;
15271;SDS011;7737;51.578;7.268;2022-10-16T09:41:16;3.85;;;1.08;;
15271;SDS011;7737;51.578;7.268;2022-10-16T09:43:49;2.67;;;1.10;;
15271;SDS011;7737;51.578;7.268;2022-10-16T09:46:27;2.22;;;0.90;;
15271;SDS011;7737;51.578;7.268;2022-10-16T09:48:56;1.75;;;0.88;;
15271;SDS011;7737;51.578;7.268;2022-10-16T09:51:24;2.70;;;1.10;;
15271;SDS011;7737;51.578;7.268;2022-10-16T09:53:54;3.03;;;0.93;;
15271;SDS011;7737;51.578;7.268;2022-10-16T09:56:23;2.72;;;1.10;;
15271;SDS011;7737;51.578;7.268;2022-10-16T09:58:51;3.05;;;1.17;;
15271;SDS011;7737;51.578;7.268;2022-10-16T10:01:19;2.63;;;1.00;;
15271;SDS011;7737;51.578;7.268;2022-10-16T10:03:46;2.03;;;0.90;;
15271;SDS011;7737;51.578;7.268;2022-10-16T10:06:17;2.40;;;0.98;;
15271;SDS011;7737;51.578;7.268;2022-10-16T10:08:58;2.95;;;1.10;;
15271;SDS011;7737;51.578;7.268;2022-10-16T10:11:47;2.33;;;1.05;;
15271;SDS011;7737;51.578;7.268;2022-10-16T10:14:17;3.88;;;1.25;;
15271;SDS011;7737;51.578;7.268;2022-10-16T10:16:46;2.03;;;1.00;;
15271;SDS011;7737;51.578;7.268;2022-10-16T10:19:14;3.13;;;1.13;;
15271;SDS011;7737;51.578;7.268;2022-10-16T10:21:44;4.47;;;1.50;;
15271;SDS011;7737;51.578;7.268;2022-10-16T10:24:11;3.20;;;1.10;;
15271;SDS011;7737;51.578;7.268;2022-10-16T10:26:38;3.05;;;0.90;;
15271;SDS011;7737;51.578;7.268;2022-10-16T10:29:12;4.22;;;1.40;;
15271;SDS011;7737;51.578;7.268;2022-10-16T10:31:44;3.72;;;1.13;;
15271;SDS011;7737;51.578;7.268;2022-10-16T10:34:22;1.42;;;1.00;;
15271;SDS011;7737;51.578;7.268;2022-10-16T10:37:04;1.30;;;0.70;;
15271;SDS011;7737;51.578;7.268;2022-10-16T10:39:39;2.05;;;1.00;;
15271;SDS011;7737;51.578;7.268;2022-10-16T10:42:13;1.30;;;0.90;;
15271;SDS011;7737;51.578;7.268;2022-10-16T10:44:53;2.08;;;0.82;;
15271;SDS011;7737;51.578;7.268;2022-10-16T10:47:27;2.83;;;0.90;;
15271;SDS011;7737;51.578;7.268;2022-10-16T10:50:07;1.83;;;1.00;;
15271;SDS011;7737;51.578;7.268;2022-10-16T10:52:46;2.13;;;0.98;;
15271;SDS011;7737;51.578;7.268;2022-10-16T10:55:23;2.22;;;0.90;;
15271;SDS011;7737;51.578;7.268;2022-10-16T10:58:07;2.30;;;0.90;;
15271;SDS011;7737;51.578;7.268;2022-10-16T11:00:56;2.55;;;0.98;;
15271;SDS011;7737;51.578;7.268;2022-10-16T11:03:35;2.20;;;0.93;;
15271;SDS011;7737;51.578;7.268;2022-10-16T11:06:14;2.67;;;1.40;;
15271;SDS011;7737;51.578;7.268;2022-10-16T11:08:46;1.48;;;0.90;;
15271;SDS011;7737;51.578;7.268;2022-10-16T11:11:18;1.77;;;1.00;;
15271;SDS011;7737;51.578;7.268;2022-10-16T11:13:53;2.17;;;0.80;;
15271;SDS011;7737;51.578;7.268;2022-10-16T11:16:26;2.83;;;1.15;;
15271;SDS011;7737;51.578;7.268;2022-10-16T11:18:56;1.65;;;0.80;;
15271;SDS011;7737;51.578;7.268;2022-10-16T11:21:25;2.80;;;0.85;;
15271;SDS011;7737;51.578;7.268;2022-10-16T11:23:58;1.88;;;1.10;;
15271;SDS011;7737;51.578;7.268;2022-10-16T11:26:37;2.60;;;0.98;;
15271;SDS011;7737;51.578;7.268;2022-10-16T11:29:08;1.63;;;0.90;;
15271;SDS011;7737;51.578;7.268;2022-10-16T11:31:45;1.58;;;0.80;;
15271;SDS011;7737;51.578;7.268;2022-10-16T11:34:17;2.20;;;1.15;;
15271;SDS011;7737;51.578;7.268;2022-10-16T11:36:52;1.75;;;0.90;;
15271;SDS011;7737;51.578;7.268;2022-10-16T11:39:25;2.13;;;1.20;;
15271;SDS011;7737;51.578;7.268;2022-10-16T11:41:53;2.30;;;1.13;;
15271;SDS011;7737;51.578;7.268;2022-10-16T11:44:36;2.42;;;0.90;;
15271;SDS011;7737;51.578;7.268;2022-10-16T11:47:13;3.85;;;0.80;;
15271;SDS011;7737;51.578;7.268;2022-10-16T11:49:50;4.28;;;1.63;;
15271;SDS011;7737;51.578;7.268;2022-10-16T11:52:20;1.80;;;0.98;;
15271;SDS011;7737;51.578;7.268;2022-10-16T11:54:56;2.08;;;1.00;;
15271;SDS011;7737;51.578;7.268;2022-10-16T11:57:31;2.88;;;1.13;;
15271;SDS011;7737;51.578;7.268;2022-10-16T12:00:01;1.98;;;0.82;;
15271;SDS011;7737;51.578;7.268;2022-10-16T12:02:37;3.72;;;1.20;;
15271;SDS011;7737;51.578;7.268;2022-10-16T12:05:18;4.85;;;1.20;;
15271;SDS011;7737;51.578;7.268;2022-10-16T12:07:51;2.85;;;1.40;;
15271;SDS011;7737;51.578;7.268;2022-10-16T12:10:26;1.63;;;0.93;;
15271;SDS011;7737;51.578;7.268;2022-10-16T12:12:56;2.95;;;0.70;;
15271;SDS011;7737;51.578;7.268;2022-10-16T12:15:24;1.35;;;0.75;;
15271;SDS011;7737;51.578;7.268;2022-10-16T12:17:52;2.03;;;0.77;;
15271;SDS011;7737;51.578;7.268;2022-10-16T12:20:24;3.10;;;1.13;;
15271;SDS011;7737;51.578;7.268;2022-10-16T12:22:55;1.88;;;0.80;;
15271;SDS011;7737;51.578;7.268;2022-10-16T12:25:26;1.80;;;0.80;;
15271;SDS011;7737;51.578;7.268;2022-10-16T12:27:55;2.72;;;0.93;;
15271;SDS011;7737;51.578;7.268;2022-10-16T12:30:31;3.10;;;0.88;;
15271;SDS011;7737;51.578;7.268;2022-10-16T12:33:01;2.92;;;0.80;;
15271;SDS011;7737;51.578;7.268;2022-10-16T12:35:30;1.88;;;1.00;;
15271;SDS011;7737;51.578;7.268;2022-10-16T12:38:12;1.23;;;0.70;;
15271;SDS011;7737;51.578;7.268;2022-10-16T12:40:45;2.40;;;0.88;;
15271;SDS011;7737;51.578;7.268;2022-10-16T12:43:27;2.35;;;0.93;;
15271;SDS011;7737;51.578;7.268;2022-10-16T12:46:02;2.08;;;0.77;;
15271;SDS011;7737;51.578;7.268;2022-10-16T12:48:31;2.03;;;0.75;;
15271;SDS011;7737;51.578;7.268;2022-10-16T12:50:57;1.65;;;1.00;;
15271;SDS011;7737;51.578;7.268;2022-10-16T12:53:36;2.55;;;1.00;;
15271;SDS011;7737;51.578;7.268;2022-10-16T12:56:08;2.35;;;1.00;;
15271;SDS011;7737;51.578;7.268;2022-10-16T12:58:43;3.60;;;1.05;;
15271;SDS011;7737;51.578;7.268;2022-10-16T13:01:29;1.88;;;0.95;;
15271;SDS011;7737;51.578;7.268;2022-10-16T13:04:13;3.58;;;1.10;;
15271;SDS011;7737;51.578;7.268;2022-10-16T13:06:50;2.38;;;0.90;;
15271;SDS011;7737;51.578;7.268;2022-10-16T13:09:29;3.33;;;0.90;;
15271;SDS011;7737;51.578;7.268;2022-10-16T13:17:55;2.58;;;0.60;;
15271;SDS011;7737;51.578;7.268;2022-10-16T13:20:30;1.90;;;1.15;;
15271;SDS011;7737;51.578;7.268;2022-10-16T13:23:04;3.40;;;2.33;;
15271;SDS011;7737;51.578;7.268;2022-10-16T13:25:47;1.70;;;1.10;;
15271;SDS011;7737;51.578;7.268;2022-10-16T13:28:28;3.47;;;1.00;;
15271;SDS011;7737;51.578;7.268;2022-10-16T13:30:58;1.65;;;1.10;;
15271;SDS011;7737;51.578;7.268;2022-10-16T13:33:28;2.00;;;0.93;;
15271;SDS011;7737;51.578;7.268;2022-10-16T13:35:58;1.98;;;1.10;;
15271;SDS011;7737;51.578;7.268;2022-10-16T13:38:26;3.08;;;1.60;;
15271;SDS011;7737;51.578;7.268;2022-10-16T13:40:54;2.65;;;0.90;;
15271;SDS011;7737;51.578;7.268;2022-10-16T13:43:26;2.25;;;1.00;;
15271;SDS011;7737;51.578;7.268;2022-10-16T13:45:59;2.80;;;0.70;;
15271;SDS011;7737;51.578;7.268;2022-10-16T13:48:27;1.77;;;0.63;;
15271;SDS011;7737;51.578;7.268;2022-10-16T13:51:04;3.17;;;0.65;;
15271;SDS011;7737;51.578;7.268;2022-10-16T13:53:33;2.60;;;0.50;;
15271;SDS011;7737;51.578;7.268;2022-10-16T13:56:02;2.20;;;0.60;;
15271;SDS011;7737;51.578;7.268;2022-10-16T13:58:31;3.38;;;0.70;;
15271;SDS011;7737;51.578;7.268;2022-10-16T14:00:58;1.23;;;0.60;;
15271;SDS011;7737;51.578;7.268;2022-10-16T14:03:27;3.38;;;1.23;;
15271;SDS011;7737;51.578;7.268;2022-10-16T14:05:56;1.35;;;0.70;;
15271;SDS011;7737;51.578;7.268;2022-10-16T14:08:25;1.65;;;0.50;;
15271;SDS011;7737;51.578;7.268;2022-10-16T14:10:55;2.15;;;0.60;;
15271;SDS011;7737;51.578;7.268;2022-10-16T14:13:26;1.60;;;0.60;;
15271;SDS011;7737;51.578;7.268;2022-10-16T14:16:02;1.45;;;0.70;;
15271;SDS011;7737;51.578;7.268;2022-10-16T14:18:33;2.70;;;0.65;;
15271;SDS011;7737;51.578;7.268;2022-10-16T14:21:04;2.97;;;0.80;;
15271;SDS011;7737;51.578;7.268;2022-10-16T14:23:33;1.95;;;0.80;;
15271;SDS011;7737;51.578;7.268;2022-10-16T14:26:05;3.30;;;0.68;;
15271;SDS011;7737;51.578;7.268;2022-10-16T14:28:40;3.20;;;0.60;;
15271;SDS011;7737;51.578;7.268;2022-10-16T14:31:22;1.92;;;0.50;;
15271;SDS011;7737;51.578;7.268;2022-10-16T14:33:52;1.35;;;0.50;;
15271;SDS011;7737;51.578;7.268;2022-10-16T14:36:18;1.13;;;0.60;;
15271;SDS011;7737;51.578;7.268;2022-10-16T14:38:48;2.38;;;0.60;;
15271;SDS011;7737;51.578;7.268;2022-10-16T14:41:20;2.40;;;0.77;;
15271;SDS011;7737;51.578;7.268;2022-10-16T14:43:50;2.45;;;0.70;;
15271;SDS011;7737;51.578;7.268;2022-10-16T14:46:20;2.97;;;0.60;;
15271;SDS011;7737;51.578;7.268;2022-10-16T14:48:51;2.03;;;0.60;;
15271;SDS011;7737;51.578;7.268;2022-10-16T14:51:26;3.08;;;0.52;;
15271;SDS011;7737;51.578;7.268;2022-10-16T14:53:53;1.48;;;0.70;;
15271;SDS011;7737;51.578;7.268;2022-10-16T14:56:21;3.25;;;0.68;;
15271;SDS011;7737;51.578;7.268;2022-10-16T14:58:51;1.48;;;0.80;;
15271;SDS011;7737;51.578;7.268;2022-10-16T15:01:18;1.05;;;0.70;;
15271;SDS011;7737;51.578;7.268;2022-10-16T15:03:45;2.63;;;0.80;;
15271;SDS011;7737;51.578;7.268;2022-10-16T15:06:12;1.85;;;0.80;;
15271;SDS011;7737;51.578;7.268;2022-10-16T15:08:40;2.53;;;0.70;;
15271;SDS011;7737;51.578;7.268;2022-10-16T15:11:07;2.35;;;0.73;;
15271;SDS011;7737;51.578;7.268;2022-10-16T15:13:38;1.25;;;0.70;;
15271;SDS011;7737;51.578;7.268;2022-10-16T15:16:07;2.25;;;0.93;;
15271;SDS011;7737;51.578;7.268;2022-10-16T15:18:36;2.00;;;0.73;;
15271;SDS011;7737;51.578;7.268;2022-10-16T15:21:03;2.85;;;1.00;;
15271;SDS011;7737;51.578;7.268;2022-10-16T15:23:30;2.03;;;0.70;;